Time;durP1;ratioP1;P1;durP2;ratioP2;P2;SDS_P1;SDS_P2;PMS_P1;PMS_P2;Temp;Humidity;BMP_temperature;BMP_pressure;BME280_temperature;BME280_humidity;BME280_pressure;Samples;Min_cycle;Max_cycle;Signal;HPM_P1;HPM_P2
2022/08/26 06:13:15;;;;;;;9.45;7.65;;;;;;;;;;5042629;28;20242;-66
2022/08/26 06:15:42;;;;;;;12.80;7.53;;;;;;;;;;5051062;28;20415;-63
2022/08/26 06:18:09;;;;;;;13.45;7.03;;;;;;;;;;5044658;28;20221;-63
2022/08/26 06:20:42;;;;;;;8.32;7.45;;;;;;;;;;5042147;28;20557;-63
2022/08/26 06:25:52;;;;;;;8.77;6.45;;;;;;;;;;5039071;28;20215;-63
2022/08/26 06:28:19;;;;;;;10.23;7.30;;;;;;;;;;5043780;28;20214;-63
2022/08/26 06:30:46;;;;;;;12.55;7.70;;;;;;;;;;5035098;28;20225;-63
2022/08/26 06:33:12;;;;;;;8.57;7.28;;;;;;;;;;5050145;28;20517;-64
2022/08/26 06:35:40;;;;;;;8.18;6.90;;;;;;;;;;5054788;28;20488;-64
2022/08/26 06:38:06;;;;;;;9.00;7.40;;;;;;;;;;5053943;28;20531;-64
2022/08/26 06:40:33;;;;;;;10.63;7.63;;;;;;;;;;5053009;28;20412;-64
2022/08/26 06:43:00;;;;;;;10.27;7.13;;;;;;;;;;5046435;28;20525;-63
2022/08/26 06:45:27;;;;;;;8.55;7.03;;;;;;;;;;5034615;28;20239;-64
2022/08/26 06:47:54;;;;;;;11.15;7.10;;;;;;;;;;5034263;28;20213;-64
2022/08/26 06:50:20;;;;;;;8.73;6.28;;;;;;;;;;5041822;28;20235;-64
2022/08/26 06:52:46;;;;;;;6.75;6.07;;;;;;;;;;5056080;28;20219;-63
2022/08/26 06:55:13;;;;;;;8.57;6.60;;;;;;;;;;5059189;28;20219;-64
2022/08/26 06:57:39;;;;;;;8.18;7.38;;;;;;;;;;5053166;28;20488;-64
2022/08/26 07:00:07;;;;;;;8.52;6.60;;;;;;;;;;5038055;28;20352;-64
2022/08/26 07:02:35;;;;;;;8.07;6.57;;;;;;;;;;5057512;28;20247;-64
2022/08/26 07:05:01;;;;;;;7.15;6.50;;;;;;;;;;5053590;28;20225;-67
2022/08/26 07:07:28;;;;;;;12.05;6.60;;;;;;;;;;5038691;28;20236;-65
2022/08/26 07:09:54;;;;;;;8.48;6.20;;;;;;;;;;5038938;28;20525;-63
2022/08/26 07:12:21;;;;;;;10.65;6.38;;;;;;;;;;5038972;28;20289;-63
2022/08/26 07:14:47;;;;;;;7.53;6.50;;;;;;;;;;5039605;28;20220;-64
2022/08/26 07:17:13;;;;;;;7.32;6.65;;;;;;;;;;5039061;28;20217;-64
2022/08/26 07:19:41;;;;;;;8.23;6.22;;;;;;;;;;5043336;28;20230;-64
2022/08/26 07:22:07;;;;;;;9.55;6.32;;;;;;;;;;5038900;28;20236;-63
2022/08/26 07:24:35;;;;;;;8.13;6.80;;;;;;;;;;5038496;28;20259;-63
2022/08/26 07:27:02;;;;;;;8.88;6.90;;;;;;;;;;5037964;28;20447;-63
2022/08/26 07:29:29;;;;;;;7.30;6.40;;;;;;;;;;5038610;28;20213;-63
2022/08/26 07:31:55;;;;;;;7.75;6.25;;;;;;;;;;5038073;28;20533;-63
2022/08/26 07:34:22;;;;;;;9.48;6.05;;;;;;;;;;5038845;28;20524;-64
2022/08/26 07:36:50;;;;;;;9.02;5.85;;;;;;;;;;5037936;28;20417;-64
2022/08/26 07:39:17;;;;;;;6.43;5.88;;;;;;;;;;5038139;28;20393;-64
2022/08/26 07:41:45;;;;;;;10.48;6.07;;;;;;;;;;5039172;28;20441;-63
2022/08/26 07:44:12;;;;;;;8.15;6.80;;;;;;;;;;5038471;28;20415;-64
2022/08/26 07:46:38;;;;;;;7.05;5.97;;;;;;;;;;5037893;28;20236;-64
2022/08/26 07:49:04;;;;;;;6.38;5.85;;;;;;;;;;5038755;28;20227;-65
2022/08/26 07:51:31;;;;;;;6.10;5.45;;;;;;;;;;5037985;28;20205;-62
2022/08/26 07:53:58;;;;;;;8.82;5.85;;;;;;;;;;5038697;28;20228;-62
2022/08/26 07:56:25;;;;;;;9.38;5.60;;;;;;;;;;5046595;28;20232;-64
2022/08/26 07:58:52;;;;;;;6.30;5.75;;;;;;;;;;5057681;28;20219;-61
2022/08/26 08:01:18;;;;;;;6.32;5.53;;;;;;;;;;5057862;28;20552;-63
2022/08/26 08:03:45;;;;;;;8.30;5.53;;;;;;;;;;5057491;28;20272;-65
2022/08/26 08:06:11;;;;;;;7.32;5.38;;;;;;;;;;5042448;28;20232;-64
2022/08/26 08:08:40;;;;;;;6.15;5.55;;;;;;;;;;5038118;28;20232;-65
2022/08/26 08:11:07;;;;;;;6.22;5.75;;;;;;;;;;5037889;28;20555;-65
2022/08/26 08:13:34;;;;;;;8.45;5.68;;;;;;;;;;5038195;28;20236;-64
2022/08/26 08:16:00;;;;;;;6.05;5.43;;;;;;;;;;5038532;28;20209;-65
2022/08/26 08:18:27;;;;;;;5.20;4.85;;;;;;;;;;5037568;28;20524;-64
2022/08/26 08:20:53;;;;;;;6.47;5.88;;;;;;;;;;5038253;28;20243;-65
2022/08/26 08:23:20;;;;;;;10.15;6.75;;;;;;;;;;5038183;28;20487;-64
2022/08/26 08:25:47;;;;;;;9.00;5.95;;;;;;;;;;5037282;28;20220;-64
2022/08/26 08:28:15;;;;;;;8.40;7.60;;;;;;;;;;5037679;28;20213;-63
2022/08/26 08:30:42;;;;;;;7.90;5.07;;;;;;;;;;5037614;28;20201;-64
2022/08/26 08:33:08;;;;;;;6.20;4.85;;;;;;;;;;5051479;28;20540;-64
2022/08/26 08:35:34;;;;;;;7.50;5.32;;;;;;;;;;5048108;28;20213;-65
2022/08/26 08:38:01;;;;;;;16.23;5.90;;;;;;;;;;5037438;28;20220;-64
2022/08/26 08:40:27;;;;;;;13.00;5.57;;;;;;;;;;5036660;28;20256;-65
2022/08/26 08:42:57;;;;;;;5.70;5.10;;;;;;;;;;5037831;28;20557;-63
2022/08/26 08:45:30;;;;;;;8.20;5.07;;;;;;;;;;5053454;28;20213;-65
2022/08/26 08:47:57;;;;;;;10.68;5.32;;;;;;;;;;5056565;28;20383;-65
2022/08/26 08:50:25;;;;;;;5.53;5.03;;;;;;;;;;5056922;28;20215;-65
2022/08/26 08:52:55;;;;;;;6.20;5.10;;;;;;;;;;5057144;28;20221;-65
2022/08/26 08:55:23;;;;;;;9.60;4.85;;;;;;;;;;5040932;28;20205;-65
2022/08/26 08:57:56;;;;;;;11.75;5.20;;;;;;;;;;5036289;28;20424;-65
2022/08/26 09:00:23;;;;;;;7.85;5.68;;;;;;;;;;5052148;28;20518;-65
2022/08/26 09:02:52;;;;;;;6.90;6.20;;;;;;;;;;5057175;28;20213;-65
2022/08/26 09:05:20;;;;;;;8.63;5.55;;;;;;;;;;5044830;28;20412;-65
2022/08/26 09:07:48;;;;;;;6.53;6.00;;;;;;;;;;5036769;28;20444;-65
2022/08/26 09:10:36;;;;;;;7.38;5.68;;;;;;;;;;5036651;28;20209;-64
2022/08/26 09:13:04;;;;;;;6.43;5.00;;;;;;;;;;5042548;28;20212;-65
2022/08/26 09:15:35;;;;;;;10.43;5.25;;;;;;;;;;5056189;28;20427;-64
2022/08/26 09:18:09;;;;;;;6.22;4.47;;;;;;;;;;5056628;28;20212;-64
2022/08/26 09:20:44;;;;;;;4.68;4.22;;;;;;;;;;5057128;28;20238;-64
2022/08/26 09:23:10;;;;;;;6.70;3.90;;;;;;;;;;5056658;28;20212;-65
2022/08/26 09:25:44;;;;;;;5.93;4.30;;;;;;;;;;5055604;28;20220;-64
2022/08/26 09:28:14;;;;;;;4.95;4.30;;;;;;;;;;5056994;28;20570;-64
2022/08/26 09:30:41;;;;;;;6.28;4.25;;;;;;;;;;5056317;28;20208;-64
2022/08/26 09:33:09;;;;;;;5.10;3.35;;;;;;;;;;5056467;28;20216;-64
2022/08/26 09:35:37;;;;;;;4.53;3.92;;;;;;;;;;5056107;28;20462;-64
2022/08/26 09:38:19;;;;;;;5.05;3.95;;;;;;;;;;5050659;28;20209;-65
2022/08/26 09:40:53;;;;;;;6.75;3.50;;;;;;;;;;5035487;28;20236;-64
2022/08/26 09:43:20;;;;;;;3.78;3.58;;;;;;;;;;5036269;28;20280;-64
2022/08/26 09:45:47;;;;;;;6.82;5.38;;;;;;;;;;5035262;28;20266;-65
2022/08/26 09:48:25;;;;;;;7.10;4.15;;;;;;;;;;5035837;28;20589;-64
2022/08/26 09:50:52;;;;;;;9.90;4.47;;;;;;;;;;5036127;28;20219;-64
2022/08/26 09:53:20;;;;;;;4.35;3.95;;;;;;;;;;5035725;28;20213;-63
2022/08/26 09:55:47;;;;;;;5.28;3.97;;;;;;;;;;5035208;28;20241;-64
2022/08/26 09:58:14;;;;;;;8.60;4.45;;;;;;;;;;5036096;28;20217;-63
2022/08/26 10:00:41;;;;;;;6.18;3.78;;;;;;;;;;5034866;28;20232;-64
2022/08/26 10:03:09;;;;;;;5.47;4.32;;;;;;;;;;5035285;28;20217;-64
2022/08/26 10:05:41;;;;;;;7.15;4.70;;;;;;;;;;5044684;28;20652;-64
2022/08/26 10:08:21;;;;;;;8.00;5.47;;;;;;;;;;5035641;28;20220;-65
2022/08/26 10:10:48;;;;;;;11.60;5.57;;;;;;;;;;5035689;28;20209;-62
2022/08/26 10:13:17;;;;;;;10.18;6.05;;;;;;;;;;5035694;28;20248;-63
2022/08/26 10:15:46;;;;;;;14.13;6.30;;;;;;;;;;5044146;28;20215;-63
2022/08/26 10:18:14;;;;;;;14.75;6.80;;;;;;;;;;5035347;28;20280;-63
2022/08/26 10:20:48;;;;;;;17.38;6.28;;;;;;;;;;5035815;28;20239;-63
2022/08/26 10:23:17;;;;;;;14.15;6.00;;;;;;;;;;5054296;28;20212;-63
2022/08/26 10:25:46;;;;;;;9.15;4.95;;;;;;;;;;5054540;28;20475;-63
2022/08/26 10:28:18;;;;;;;11.07;6.13;;;;;;;;;;5055311;28;20263;-63
2022/08/26 10:30:45;;;;;;;15.70;6.20;;;;;;;;;;5054981;28;20215;-63
2022/08/26 10:33:14;;;;;;;13.90;5.88;;;;;;;;;;5054582;28;20292;-62
2022/08/26 10:35:44;;;;;;;9.82;5.57;;;;;;;;;;5044705;28;20217;-63
2022/08/26 10:38:14;;;;;;;10.90;4.72;;;;;;;;;;5034846;28;20212;-62
2022/08/26 10:40:45;;;;;;;13.93;5.30;;;;;;;;;;5034451;28;20225;-63
2022/08/26 10:43:13;;;;;;;10.82;5.40;;;;;;;;;;5035127;28;20228;-62
2022/08/26 10:45:42;;;;;;;12.30;5.20;;;;;;;;;;5034714;28;20224;-63
2022/08/26 10:48:12;;;;;;;13.52;5.20;;;;;;;;;;5034681;28;20220;-63
2022/08/26 10:50:39;;;;;;;9.77;5.10;;;;;;;;;;5042980;28;20212;-63
2022/08/26 10:53:07;;;;;;;19.70;5.90;;;;;;;;;;5052870;28;20219;-64
2022/08/26 10:55:36;;;;;;;12.93;6.30;;;;;;;;;;5054526;28;20212;-65
2022/08/26 10:58:08;;;;;;;7.90;4.90;;;;;;;;;;5054644;28;20510;-64
2022/08/26 11:03:26;;;;;;;10.05;4.90;;;;;;;;;;5048982;28;20394;-64
2022/08/26 11:06:07;;;;;;;5.90;4.85;;;;;;;;;;5046267;28;20578;-64
2022/08/26 11:08:34;;;;;;;10.93;5.00;;;;;;;;;;5044355;28;20212;-64
2022/08/26 11:11:01;;;;;;;6.22;4.53;;;;;;;;;;5037048;28;20214;-64
2022/08/26 11:13:47;;;;;;;4.72;3.83;;;;;;;;;;5035766;28;20251;-63
2022/08/26 11:16:31;;;;;;;7.53;4.57;;;;;;;;;;5035270;28;20205;-63
2022/08/26 11:18:57;;;;;;;11.23;4.50;;;;;;;;;;5039564;28;20217;-63
2022/08/26 11:21:47;;;;;;;6.97;3.88;;;;;;;;;;5034453;28;20229;-63
2022/08/26 11:24:34;;;;;;;9.20;4.90;;;;;;;;;;5037126;28;20217;-63
2022/08/26 11:27:02;;;;;;;12.50;4.70;;;;;;;;;;5024103;28;20220;-63
2022/08/26 11:29:56;;;;;;;6.07;4.63;;;;;;;;;;5054944;28;20219;-62
2022/08/26 11:32:24;;;;;;;9.05;5.32;;;;;;;;;;5054547;28;20215;-63
2022/08/26 11:34:52;;;;;;;11.27;5.45;;;;;;;;;;5054821;28;20236;-64
2022/08/26 11:37:20;;;;;;;15.90;5.60;;;;;;;;;;5054291;28;20212;-63
2022/08/26 11:39:47;;;;;;;14.88;5.82;;;;;;;;;;5058060;28;20222;-63
2022/08/26 11:42:20;;;;;;;11.07;6.32;;;;;;;;;;5039860;28;20237;-63
2022/08/26 11:44:47;;;;;;;12.98;5.50;;;;;;;;;;5038540;28;20446;-62
2022/08/26 11:47:15;;;;;;;11.98;5.70;;;;;;;;;;5037853;28;20217;-63
2022/08/26 11:49:41;;;;;;;12.98;5.70;;;;;;;;;;5038243;28;20521;-63
2022/08/26 11:52:12;;;;;;;6.95;5.53;;;;;;;;;;5038923;28;20209;-62
2022/08/26 11:54:39;;;;;;;8.57;5.57;;;;;;;;;;5038520;28;20418;-63
2022/08/26 11:57:07;;;;;;;9.20;5.18;;;;;;;;;;5037480;28;20217;-62
2022/08/26 11:59:37;;;;;;;7.22;5.25;;;;;;;;;;5037978;28;20205;-63
2022/08/26 12:02:05;;;;;;;11.60;5.22;;;;;;;;;;5038088;28;20263;-63
2022/08/26 12:04:32;;;;;;;10.38;5.38;;;;;;;;;;5042110;28;20201;-63
2022/08/26 12:06:59;;;;;;;9.55;5.32;;;;;;;;;;5037968;28;20443;-63
2022/08/26 12:09:29;;;;;;;7.18;5.40;;;;;;;;;;5037349;28;20220;-63
2022/08/26 12:12:09;;;;;;;15.27;5.35;;;;;;;;;;5037803;28;20398;-63
2022/08/26 12:14:37;;;;;;;7.22;4.50;;;;;;;;;;5038299;28;20217;-64
2022/08/26 12:17:09;;;;;;;9.00;5.40;;;;;;;;;;5038445;28;20220;-65
2022/08/26 12:19:35;;;;;;;7.13;4.97;;;;;;;;;;5037600;28;20232;-64
2022/08/26 12:22:03;;;;;;;6.80;4.88;;;;;;;;;;5038359;28;20618;-64
2022/08/26 12:24:29;;;;;;;10.30;4.50;;;;;;;;;;5037287;28;20213;-64
2022/08/26 12:27:05;;;;;;;13.15;5.47;;;;;;;;;;5037184;28;20538;-64
2022/08/26 12:29:31;;;;;;;8.90;4.45;;;;;;;;;;5046846;28;20212;-63
2022/08/26 12:32:07;;;;;;;7.43;4.30;;;;;;;;;;5057563;28;20209;-63
2022/08/26 12:34:34;;;;;;;9.95;5.03;;;;;;;;;;5056983;28;20212;-63
2022/08/26 12:37:00;;;;;;;11.20;5.20;;;;;;;;;;5057908;28;20375;-64
2022/08/26 12:39:27;;;;;;;9.75;5.30;;;;;;;;;;5040363;28;20213;-64
2022/08/26 12:41:55;;;;;;;14.48;5.38;;;;;;;;;;5049745;28;20494;-65
2022/08/26 12:44:31;;;;;;;9.25;5.53;;;;;;;;;;5049257;28;20616;-64
2022/08/26 12:47:01;;;;;;;13.40;5.18;;;;;;;;;;5056740;28;20219;-64
2022/08/26 12:49:29;;;;;;;10.98;5.70;;;;;;;;;;5055549;28;20404;-64
2022/08/26 12:51:56;;;;;;;10.57;5.25;;;;;;;;;;5057510;28;20308;-64
2022/08/26 12:54:57;;;;;;;9.82;5.20;;;;;;;;;;5056685;28;20527;-64
2022/08/26 12:57:09;;;;;;;10.45;5.20;;;;;;;;;;5055741;28;20655;-63
2022/08/26 12:59:35;;;;;;;8.10;5.10;;;;;;;;;;5056704;28;20815;-64
2022/08/26 13:02:01;;;;;;;9.00;5.03;;;;;;;;;;5056476;28;20228;-62
2022/08/26 13:04:46;;;;;;;14.50;4.65;;;;;;;;;;5051958;28;20209;-64
2022/08/26 13:07:20;;;;;;;9.68;5.35;;;;;;;;;;5036623;28;20213;-64
2022/08/26 13:09:48;;;;;;;11.27;5.63;;;;;;;;;;5036381;28;20213;-64
2022/08/26 13:12:22;;;;;;;12.70;5.38;;;;;;;;;;5036201;28;20241;-64
2022/08/26 13:14:49;;;;;;;9.00;4.82;;;;;;;;;;5037774;28;20212;-63
2022/08/26 13:17:16;;;;;;;12.27;4.93;;;;;;;;;;5035956;28;20217;-63
2022/08/26 13:19:42;;;;;;;9.80;5.25;;;;;;;;;;5036128;28;20568;-63
2022/08/26 13:22:11;;;;;;;8.30;4.53;;;;;;;;;;5036608;28;20237;-64
2022/08/26 13:24:39;;;;;;;10.10;4.90;;;;;;;;;;5036378;28;20567;-64
2022/08/26 13:27:08;;;;;;;11.00;4.75;;;;;;;;;;5035714;28;20213;-64
2022/08/26 13:29:34;;;;;;;5.80;4.40;;;;;;;;;;5036223;28;20528;-64
2022/08/26 13:32:01;;;;;;;13.73;5.60;;;;;;;;;;5038888;28;20213;-63
2022/08/26 13:34:27;;;;;;;12.15;5.13;;;;;;;;;;5036347;28;20221;-63
2022/08/26 13:36:55;;;;;;;11.80;4.80;;;;;;;;;;5055840;28;20314;-64
2022/08/26 13:39:21;;;;;;;10.50;4.97;;;;;;;;;;5055187;28;20288;-64
2022/08/26 13:41:48;;;;;;;12.57;5.50;;;;;;;;;;5056062;28;20247;-64
2022/08/26 13:44:16;;;;;;;10.18;5.22;;;;;;;;;;5055751;28;20211;-70
2022/08/26 13:46:42;;;;;;;8.27;4.57;;;;;;;;;;5055436;28;20208;-70
2022/08/26 13:49:08;;;;;;;8.80;4.28;;;;;;;;;;5055182;28;20220;-70
2022/08/26 13:51:36;;;;;;;12.70;5.15;;;;;;;;;;5055180;28;20385;-70
2022/08/26 13:54:03;;;;;;;8.27;5.30;;;;;;;;;;5055323;28;20235;-71
2022/08/26 13:56:30;;;;;;;7.72;4.68;;;;;;;;;;5055975;28;20235;-70
2022/08/26 13:58:57;;;;;;;8.10;4.88;;;;;;;;;;5055410;28;20493;-70
2022/08/26 14:01:26;;;;;;;8.85;5.15;;;;;;;;;;5052327;28;20481;-70
2022/08/26 14:03:52;;;;;;;8.07;5.40;;;;;;;;;;5051274;28;20209;-70
2022/08/26 14:06:19;;;;;;;15.82;5.60;;;;;;;;;;5050268;28;20224;-69
2022/08/26 14:08:45;;;;;;;13.80;5.55;;;;;;;;;;5055791;28;20582;-69
2022/08/26 14:11:12;;;;;;;13.95;5.35;;;;;;;;;;5054973;28;20213;-69
2022/08/26 14:13:38;;;;;;;8.63;5.35;;;;;;;;;;5055786;28;20219;-69
2022/08/26 14:16:07;;;;;;;9.85;4.97;;;;;;;;;;5055429;28;20212;-69
2022/08/26 14:18:36;;;;;;;12.07;5.60;;;;;;;;;;5054921;28;20213;-69
2022/08/26 14:21:05;;;;;;;8.05;5.15;;;;;;;;;;5053844;28;20510;-69
2022/08/26 14:23:31;;;;;;;11.10;5.20;;;;;;;;;;5035359;28;20460;-70
2022/08/26 14:25:58;;;;;;;7.55;5.00;;;;;;;;;;5051427;28;20409;-69
2022/08/26 14:28:25;;;;;;;8.88;5.20;;;;;;;;;;5055316;28;20276;-69
2022/08/26 14:30:53;;;;;;;13.45;5.68;;;;;;;;;;5055051;28;20231;-69
2022/08/26 14:33:22;;;;;;;7.00;6.07;;;;;;;;;;5054576;28;20279;-69
2022/08/26 14:35:49;;;;;;;11.45;6.15;;;;;;;;;;5054990;28;20223;-71
2022/08/26 14:38:16;;;;;;;9.75;6.28;;;;;;;;;;5055546;28;20238;-65
2022/08/26 14:40:43;;;;;;;9.25;6.00;;;;;;;;;;5055514;28;20208;-64
2022/08/26 14:43:10;;;;;;;10.85;5.85;;;;;;;;;;5055690;28;20225;-64
2022/08/26 14:45:40;;;;;;;20.17;6.50;;;;;;;;;;5055762;28;20283;-64
2022/08/26 14:48:06;;;;;;;11.77;6.22;;;;;;;;;;5055568;28;20219;-63
2022/08/26 14:50:32;;;;;;;12.85;6.90;;;;;;;;;;5056258;28;20212;-65
2022/08/26 14:55:55;;;;;;;10.82;6.38;;;;;;;;;;5013365;28;20317;-64
2022/08/26 14:58:21;;;;;;;15.02;6.30;;;;;;;;;;5044785;28;20211;-64
2022/08/26 15:00:48;;;;;;;10.82;6.07;;;;;;;;;;5055893;28;20209;-64
2022/08/26 15:03:14;;;;;;;13.35;6.30;;;;;;;;;;5055710;28;20220;-64
2022/08/26 15:05:44;;;;;;;16.48;6.30;;;;;;;;;;5055193;28;20220;-65
2022/08/26 15:08:12;;;;;;;10.98;5.57;;;;;;;;;;5055738;28;20280;-65
2022/08/26 15:10:38;;;;;;;13.75;5.93;;;;;;;;;;5055513;28;20208;-65
2022/08/26 15:13:04;;;;;;;10.93;6.18;;;;;;;;;;5056613;28;20211;-65
2022/08/26 15:15:30;;;;;;;10.23;6.47;;;;;;;;;;5059784;28;20224;-65
2022/08/26 15:17:57;;;;;;;15.05;6.68;;;;;;;;;;5060081;28;20212;-65
2022/08/26 15:20:23;;;;;;;11.75;6.30;;;;;;;;;;5059799;28;20212;-65
2022/08/26 15:22:49;;;;;;;12.50;6.45;;;;;;;;;;5059321;28;20690;-64
2022/08/26 15:25:17;;;;;;;12.45;6.03;;;;;;;;;;5059109;28;20443;-63
2022/08/26 15:27:44;;;;;;;17.42;5.85;;;;;;;;;;5064546;28;20197;-65
2022/08/26 15:30:11;;;;;;;14.45;5.82;;;;;;;;;;5064691;28;20228;-65
2022/08/26 15:32:37;;;;;;;18.15;5.88;;;;;;;;;;5065055;28;20307;-64
2022/08/26 15:35:04;;;;;;;12.80;5.45;;;;;;;;;;5064929;28;20202;-64
2022/08/26 15:37:30;;;;;;;13.82;6.18;;;;;;;;;;5064948;28;20236;-65
2022/08/26 15:39:56;;;;;;;14.13;5.40;;;;;;;;;;5064615;28;20203;-65
2022/08/26 15:42:24;;;;;;;13.40;4.95;;;;;;;;;;5064640;28;20554;-65
2022/08/26 15:44:51;;;;;;;7.90;4.82;;;;;;;;;;5064627;28;20200;-64
2022/08/26 15:47:17;;;;;;;11.48;5.10;;;;;;;;;;5064782;28;20196;-64
2022/08/26 15:49:44;;;;;;;11.63;5.00;;;;;;;;;;5064519;28;20268;-65
2022/08/26 15:52:10;;;;;;;9.02;4.88;;;;;;;;;;5064521;28;20199;-64
2022/08/26 15:54:36;;;;;;;11.38;4.15;;;;;;;;;;5064649;28;20527;-64
2022/08/26 15:57:03;;;;;;;8.48;4.40;;;;;;;;;;5064314;28;20204;-65
2022/08/26 15:59:30;;;;;;;12.38;4.90;;;;;;;;;;5064582;28;20200;-64
2022/08/26 16:01:57;;;;;;;8.45;4.40;;;;;;;;;;5064863;28;20211;-65
2022/08/26 16:04:24;;;;;;;9.45;5.00;;;;;;;;;;5064891;28;20205;-64
2022/08/26 16:06:50;;;;;;;17.02;5.25;;;;;;;;;;5064653;28;20224;-65
2022/08/26 16:09:17;;;;;;;7.03;4.68;;;;;;;;;;5064908;28;20246;-64
2022/08/26 16:11:43;;;;;;;11.65;5.20;;;;;;;;;;5064747;28;20227;-64
2022/08/26 16:14:10;;;;;;;8.88;4.68;;;;;;;;;;5064656;28;20232;-64
2022/08/26 16:16:39;;;;;;;12.43;5.28;;;;;;;;;;5064564;28;20200;-64
2022/08/26 16:19:05;;;;;;;9.65;5.00;;;;;;;;;;5064315;28;20197;-64
2022/08/26 16:21:31;;;;;;;13.00;5.25;;;;;;;;;;5064510;28;20488;-64
2022/08/26 16:23:58;;;;;;;15.07;5.20;;;;;;;;;;5063829;28;20220;-64
2022/08/26 16:26:25;;;;;;;15.02;4.70;;;;;;;;;;5064347;28;20204;-64
2022/08/26 16:28:52;;;;;;;8.10;4.72;;;;;;;;;;5064122;28;20197;-64
2022/08/26 16:31:19;;;;;;;9.30;4.78;;;;;;;;;;5064308;28;20424;-64
2022/08/26 16:33:47;;;;;;;8.25;4.25;;;;;;;;;;5064284;28;20230;-64
2022/08/26 16:36:13;;;;;;;11.43;4.32;;;;;;;;;;5064173;28;20220;-64
2022/08/26 16:38:40;;;;;;;8.65;4.70;;;;;;;;;;5064094;28;20204;-64
2022/08/26 16:41:07;;;;;;;4.80;4.28;;;;;;;;;;5064116;28;20213;-64
2022/08/26 16:43:34;;;;;;;4.35;3.67;;;;;;;;;;5064031;28;20216;-64
2022/08/26 16:46:00;;;;;;;4.55;3.65;;;;;;;;;;5064090;28;20204;-64
2022/08/26 16:48:26;;;;;;;7.65;3.90;;;;;;;;;;5064109;28;20196;-64
2022/08/26 16:50:54;;;;;;;3.78;3.15;;;;;;;;;;5063745;28;20550;-64
2022/08/26 16:53:21;;;;;;;7.22;3.50;;;;;;;;;;5063983;28;20208;-63
2022/08/26 16:55:48;;;;;;;3.80;3.45;;;;;;;;;;5063978;28;20203;-63
2022/08/26 16:58:14;;;;;;;6.50;3.97;;;;;;;;;;5064193;28;20204;-64
2022/08/26 17:00:41;;;;;;;5.28;3.65;;;;;;;;;;5063625;28;20192;-63
2022/08/26 17:03:07;;;;;;;5.93;4.13;;;;;;;;;;5064070;28;20224;-66
2022/08/26 17:05:35;;;;;;;4.90;4.03;;;;;;;;;;5064269;28;20717;-65
2022/08/26 17:08:03;;;;;;;8.55;4.47;;;;;;;;;;5063823;28;20197;-64
2022/08/26 17:10:29;;;;;;;5.55;4.43;;;;;;;;;;5063520;28;20204;-64
2022/08/26 17:12:56;;;;;;;7.47;4.22;;;;;;;;;;5063734;28;20492;-64
2022/08/26 17:15:23;;;;;;;8.05;5.00;;;;;;;;;;5063806;28;20465;-64
2022/08/26 17:17:50;;;;;;;4.65;4.25;;;;;;;;;;5063515;28;20458;-64
2022/08/26 17:20:17;;;;;;;8.32;4.43;;;;;;;;;;5063414;28;20211;-64
2022/08/26 17:22:44;;;;;;;4.70;4.30;;;;;;;;;;5063479;28;20224;-64
2022/08/26 17:25:13;;;;;;;4.22;3.83;;;;;;;;;;5063372;28;20371;-64
2022/08/26 17:27:40;;;;;;;8.30;4.50;;;;;;;;;;5063231;28;20204;-64
2022/08/26 17:30:07;;;;;;;6.93;3.90;;;;;;;;;;5063059;28;20220;-64
2022/08/26 17:32:33;;;;;;;4.72;3.88;;;;;;;;;;5063147;28;20196;-64
2022/08/26 17:35:00;;;;;;;5.65;3.95;;;;;;;;;;5063211;28;20209;-64
2022/08/26 17:37:27;;;;;;;4.28;3.90;;;;;;;;;;5062717;28;20197;-64
2022/08/26 17:39:53;;;;;;;3.65;3.08;;;;;;;;;;5062845;28;20520;-64
2022/08/26 17:42:20;;;;;;;3.97;3.40;;;;;;;;;;5063026;28;20477;-64
2022/08/26 17:44:47;;;;;;;3.22;2.88;;;;;;;;;;5063128;28;20201;-64
2022/08/26 17:47:14;;;;;;;6.03;4.00;;;;;;;;;;5063268;28;20205;-64
2022/08/26 17:49:40;;;;;;;7.35;3.40;;;;;;;;;;5063076;28;20533;-64
2022/08/26 17:52:06;;;;;;;3.97;3.20;;;;;;;;;;5063066;28;20528;-64
2022/08/26 17:54:33;;;;;;;4.28;3.33;;;;;;;;;;5063007;28;20193;-64
2022/08/26 17:56:59;;;;;;;3.65;2.70;;;;;;;;;;5062689;28;20211;-64
2022/08/26 17:59:26;;;;;;;2.30;1.90;;;;;;;;;;5062550;28;20219;-64
2022/08/26 18:01:53;;;;;;;2.70;2.30;;;;;;;;;;5062524;28;20208;-64
2022/08/26 18:04:19;;;;;;;2.25;2.15;;;;;;;;;;5062709;28;20243;-64
2022/08/26 18:06:45;;;;;;;2.70;2.50;;;;;;;;;;5062709;28;20217;-64
2022/08/26 18:09:12;;;;;;;4.97;2.80;;;;;;;;;;5062330;28;20201;-65
2022/08/26 18:11:38;;;;;;;6.80;2.45;;;;;;;;;;5062598;28;20235;-64
2022/08/26 18:14:04;;;;;;;2.90;2.60;;;;;;;;;;5062491;28;20204;-64
2022/08/26 18:16:37;;;;;;;5.00;3.38;;;;;;;;;;5062259;28;20200;-64
2022/08/26 18:19:03;;;;;;;3.20;2.90;;;;;;;;;;5062178;28;20196;-64
2022/08/26 18:21:29;;;;;;;3.60;3.30;;;;;;;;;;5062324;28;20203;-64
2022/08/26 18:23:56;;;;;;;5.35;2.90;;;;;;;;;;5062253;28;20220;-64
2022/08/26 18:26:24;;;;;;;5.65;2.83;;;;;;;;;;5062185;28;20205;-64
2022/08/26 18:28:50;;;;;;;3.17;2.78;;;;;;;;;;5061812;28;20210;-64
2022/08/26 18:31:17;;;;;;;4.93;3.33;;;;;;;;;;5062431;28;20203;-64
2022/08/26 18:33:44;;;;;;;3.10;2.97;;;;;;;;;;5062405;28;20265;-64
2022/08/26 18:36:15;;;;;;;2.88;2.47;;;;;;;;;;5062347;28;20224;-64
2022/08/26 18:38:41;;;;;;;4.95;2.78;;;;;;;;;;5062146;28;20197;-65
2022/08/26 18:41:07;;;;;;;4.00;2.58;;;;;;;;;;5062321;28;20229;-69
2022/08/26 18:43:35;;;;;;;2.97;2.78;;;;;;;;;;5061847;28;20217;-69
2022/08/26 18:46:01;;;;;;;2.70;2.50;;;;;;;;;;5062264;28;20284;-69
2022/08/26 18:48:28;;;;;;;3.35;2.70;;;;;;;;;;5062036;28;20202;-69
2022/08/26 18:50:59;;;;;;;3.05;2.80;;;;;;;;;;5061829;28;20197;-69
2022/08/26 18:53:25;;;;;;;2.80;2.60;;;;;;;;;;5061972;28;20200;-69
2022/08/26 18:55:51;;;;;;;3.15;2.85;;;;;;;;;;5061820;28;20469;-69
2022/08/26 18:58:17;;;;;;;3.22;3.03;;;;;;;;;;5062128;28;20236;-69
2022/08/26 19:00:44;;;;;;;2.78;2.58;;;;;;;;;;5061857;28;20211;-69
2022/08/26 19:03:10;;;;;;;3.60;3.30;;;;;;;;;;5061963;28;20212;-69
2022/08/26 19:05:36;;;;;;;4.03;3.50;;;;;;;;;;5061815;28;20227;-69
2022/08/26 19:08:04;;;;;;;6.07;3.75;;;;;;;;;;5061722;28;20200;-69
2022/08/26 19:10:30;;;;;;;3.55;3.25;;;;;;;;;;5061461;28;20201;-69
2022/08/26 19:12:56;;;;;;;3.65;3.45;;;;;;;;;;5061996;28;20197;-69
2022/08/26 19:15:23;;;;;;;5.57;3.33;;;;;;;;;;5061747;28;20204;-69
2022/08/26 19:17:49;;;;;;;6.68;3.38;;;;;;;;;;5061676;28;20204;-69
2022/08/26 19:20:15;;;;;;;3.30;3.10;;;;;;;;;;5061533;28;20479;-69
2022/08/26 19:22:41;;;;;;;4.10;3.60;;;;;;;;;;5061571;28;20197;-69
2022/08/26 19:25:10;;;;;;;5.10;3.22;;;;;;;;;;5061462;28;20263;-69
2022/08/26 19:27:36;;;;;;;3.63;3.47;;;;;;;;;;5061721;28;20421;-69
2022/08/26 19:30:02;;;;;;;5.38;3.60;;;;;;;;;;5061447;28;20197;-69
2022/08/26 19:32:28;;;;;;;3.47;3.28;;;;;;;;;;5061748;28;20590;-69
2022/08/26 19:34:55;;;;;;;5.03;3.45;;;;;;;;;;5061619;28;20391;-69
2022/08/26 19:37:21;;;;;;;5.75;3.40;;;;;;;;;;5061408;28;20200;-69
2022/08/26 19:39:47;;;;;;;4.18;3.20;;;;;;;;;;5061297;28;20197;-69
2022/08/26 19:42:15;;;;;;;3.38;3.10;;;;;;;;;;5061879;28;20672;-69
2022/08/26 19:47:25;;;;;;;4.00;3.63;;;;;;;;;;5061515;28;20236;-69
2022/08/26 19:49:52;;;;;;;4.05;3.67;;;;;;;;;;5061209;28;20201;-69
2022/08/26 19:52:19;;;;;;;5.13;3.30;;;;;;;;;;5061175;28;20197;-69
2022/08/26 19:54:45;;;;;;;3.67;3.35;;;;;;;;;;5061561;28;20192;-69
2022/08/26 19:57:11;;;;;;;4.82;3.38;;;;;;;;;;5061309;28;20217;-69
2022/08/26 19:59:39;;;;;;;5.28;3.25;;;;;;;;;;5062626;28;20201;-69
2022/08/26 20:02:05;;;;;;;3.50;3.20;;;;;;;;;;5065056;28;20197;-69
2022/08/26 20:04:32;;;;;;;4.00;3.60;;;;;;;;;;5065253;28;20220;-69
2022/08/26 20:06:58;;;;;;;3.83;3.63;;;;;;;;;;5064999;28;20201;-69
2022/08/26 20:09:25;;;;;;;4.32;3.92;;;;;;;;;;5064785;28;20197;-69
2022/08/26 20:11:51;;;;;;;4.80;3.88;;;;;;;;;;5064815;28;20197;-69
2022/08/26 20:14:17;;;;;;;4.45;4.05;;;;;;;;;;5064789;28;20196;-69
2022/08/26 20:16:46;;;;;;;5.50;3.80;;;;;;;;;;5064831;28;20205;-69
2022/08/26 20:21:56;;;;;;;4.38;4.07;;;;;;;;;;5064690;28;20192;-69
2022/08/26 20:24:25;;;;;;;5.28;4.78;;;;;;;;;;5064596;28;20224;-69
2022/08/26 20:26:51;;;;;;;4.38;4.07;;;;;;;;;;5064607;28;20228;-69
2022/08/26 20:29:18;;;;;;;4.43;4.07;;;;;;;;;;5064190;28;20288;-69
2022/08/26 20:31:46;;;;;;;4.78;4.47;;;;;;;;;;5064335;28;20197;-69
2022/08/26 20:34:12;;;;;;;4.72;4.38;;;;;;;;;;5064583;28;20200;-69
2022/08/26 20:36:39;;;;;;;4.88;4.47;;;;;;;;;;5063162;28;20200;-69
2022/08/26 20:39:06;;;;;;;4.85;4.45;;;;;;;;;;5053686;28;20193;-69
2022/08/26 20:41:32;;;;;;;5.32;4.82;;;;;;;;;;5061316;28;20205;-69
2022/08/26 20:43:58;;;;;;;5.43;4.95;;;;;;;;;;5055004;28;20217;-69
2022/08/26 20:46:25;;;;;;;5.45;4.60;;;;;;;;;;5063505;28;20197;-69
2022/08/26 20:48:53;;;;;;;6.47;5.40;;;;;;;;;;5064155;28;20207;-69
2022/08/26 20:51:20;;;;;;;5.90;5.50;;;;;;;;;;5064322;28;20332;-69
2022/08/26 20:53:46;;;;;;;7.38;6.00;;;;;;;;;;5064166;28;20192;-69
2022/08/26 20:56:14;;;;;;;6.40;5.90;;;;;;;;;;5064066;28;20209;-69
2022/08/26 20:58:41;;;;;;;6.32;5.72;;;;;;;;;;5063870;28;20231;-69
2022/08/26 21:01:16;;;;;;;6.43;5.28;;;;;;;;;;5063572;28;20224;-69
2022/08/26 21:03:42;;;;;;;11.85;5.68;;;;;;;;;;5063734;28;20315;-69
2022/08/26 21:06:11;;;;;;;7.53;5.22;;;;;;;;;;5063864;28;20216;-69
2022/08/26 21:08:37;;;;;;;6.07;5.60;;;;;;;;;;5063799;28;20197;-69